Time;durP1;ratioP1;P1;durP2;ratioP2;P2;SDS_P1;SDS_P2;PMS_P1;PMS_P2;Temp;Humidity;BMP_temperature;BMP_pressure;BME280_temperature;BME280_humidity;BME280_pressure;Samples;Min_cycle;Max_cycle;Signal;HPM_P1;HPM_P2
2023/12/24 00:01:06;;;;;;;11.00;4.13;;;6.10;99.90;;;;;;5063718;28;20049;-66
2023/12/24 00:03:33;;;;;;;10.45;4.78;;;6.10;99.90;;;;;;5078569;28;20089;-66
2023/12/24 00:05:59;;;;;;;9.02;4.55;;;6.20;99.90;;;;;;5075684;28;20494;-65
2023/12/24 00:08:24;;;;;;;12.60;4.63;;;6.20;99.90;;;;;;5079563;28;20085;-65
2023/12/24 00:10:50;;;;;;;8.32;3.92;;;6.20;99.90;;;;;;5070870;28;20036;-64
2023/12/24 00:13:15;;;;;;;7.10;4.43;;;6.20;99.90;;;;;;5082899;28;20093;-65
2023/12/24 00:15:41;;;;;;;7.78;4.50;;;6.20;99.90;;;;;;5073886;28;20435;-66
2023/12/24 00:18:07;;;;;;;9.85;4.63;;;6.20;99.90;;;;;;5064620;28;20052;-65
2023/12/24 00:20:32;;;;;;;11.15;4.57;;;6.20;99.90;;;;;;5060064;28;20032;-66
2023/12/24 00:23:08;;;;;;;8.73;5.18;;;6.20;99.90;;;;;;5058893;28;20053;-65
2023/12/24 00:25:38;;;;;;;11.67;5.07;;;6.20;99.90;;;;;;5064743;28;20049;-64
2023/12/24 00:28:04;;;;;;;9.38;4.70;;;6.30;99.90;;;;;;5063411;28;20045;-64
2023/12/24 00:30:31;;;;;;;8.38;4.78;;;6.30;99.90;;;;;;5062308;28;20102;-64
2023/12/24 00:32:57;;;;;;;9.40;5.40;;;6.30;99.90;;;;;;5058960;28;20630;-66
2023/12/24 00:35:23;;;;;;;9.98;5.38;;;6.30;99.90;;;;;;5068055;28;20551;-65
2023/12/24 00:37:50;;;;;;;9.00;5.55;;;6.30;99.90;;;;;;5064064;28;20401;-65
2023/12/24 00:40:19;;;;;;;10.60;5.43;;;;;;;;;;5057376;28;20545;-67
2023/12/24 00:42:46;;;;;;;10.90;6.50;;;;;;;;;;5053877;28;20127;-65
2023/12/24 00:45:12;;;;;;;11.45;6.30;;;;;;;;;;5062713;28;20040;-65
2023/12/24 00:47:38;;;;;;;10.23;5.93;;;;;;;;;;5062487;28;20163;-66
2023/12/24 00:50:06;;;;;;;10.52;5.45;;;;;;;;;;5066510;28;20040;-65
2023/12/24 00:52:32;;;;;;;15.45;6.72;;;;;;;;;;5056917;28;20091;-65
2023/12/24 00:54:58;;;;;;;9.38;5.15;;;;;;;;;;5051496;28;20029;-65
2023/12/24 00:57:24;;;;;;;9.23;5.60;;;;;;;;;;5066188;28;20109;-66
2023/12/24 00:59:50;;;;;;;10.20;4.80;;;;;;;;;;5057574;28;20082;-64
2023/12/24 01:02:17;;;;;;;8.60;5.13;;;;;;;;;;5063965;28;20123;-66
2023/12/24 01:04:43;;;;;;;8.93;4.80;;;;;;;;;;5063453;28;20071;-66
2023/12/24 01:07:09;;;;;;;13.98;5.50;;;;;;;;;;5057751;28;20045;-66
2023/12/24 01:09:37;;;;;;;14.05;5.53;;;;;;;;;;5059141;28;21109;-66
2023/12/24 01:12:04;;;;;;;10.20;4.65;;;;;;;;;;5060334;28;20032;-65
2023/12/24 01:14:30;;;;;;;12.73;4.82;;;;;;;;;;5054852;28;20037;-66
2023/12/24 01:16:56;;;;;;;11.77;4.63;;;;;;;;;;5064801;28;20044;-68
2023/12/24 01:19:22;;;;;;;8.98;4.45;;;;;;;;;;5059407;28;20162;-66
2023/12/24 01:21:48;;;;;;;8.98;4.53;;;;;;;;;;5059249;28;20163;-65
2023/12/24 01:24:15;;;;;;;6.97;4.18;;;;;;;;;;5062007;28;20045;-64
2023/12/24 01:26:41;;;;;;;7.95;4.45;;;;;;;;;;5064041;28;20052;-65
2023/12/24 01:29:07;;;;;;;12.10;5.03;;;;;;;;;;5063859;28;20419;-66
2023/12/24 01:31:33;;;;;;;11.15;4.47;;;;;;;;;;5062140;28;20052;-66
2023/12/24 01:33:58;;;;;;;8.20;4.57;;;;;;;;;;5063067;28;20032;-64
2023/12/24 01:36:25;;;;;;;6.32;4.18;;;;;;;;;;5060883;28;20131;-66
2023/12/24 01:38:51;;;;;;;6.97;3.92;;;;;;;;;;5060116;28;20052;-66
2023/12/24 01:41:17;;;;;;;8.20;3.67;;;;;;;;;;5056844;28;20032;-66
2023/12/24 01:43:44;;;;;;;8.38;4.10;;;;;;;;;;5063643;28;20033;-65
2023/12/24 01:46:10;;;;;;;8.85;4.47;;;;;;;;;;5061342;28;20047;-65
2023/12/24 01:48:37;;;;;;;7.45;4.88;;;;;;;;;;5063220;28;20053;-65
2023/12/24 01:51:03;;;;;;;9.90;4.70;;;;;;;;;;5058507;28;20041;-65
2023/12/24 01:53:30;;;;;;;9.68;5.25;;;;;;;;;;5056748;28;20060;-65
2023/12/24 01:55:56;;;;;;;11.55;4.20;;;;;;;;;;5059604;28;20094;-66
2023/12/24 01:58:22;;;;;;;8.02;3.90;;;;;;;;;;5064025;28;20174;-66
2023/12/24 02:00:48;;;;;;;7.00;3.90;;;;;;;;;;5063163;28;20108;-65
2023/12/24 02:03:14;;;;;;;9.75;3.65;;;;;;;;;;5062565;28;20478;-65
2023/12/24 02:05:40;;;;;;;7.90;4.03;;;;;;;;;;5063400;28;20133;-66
2023/12/24 02:08:08;;;;;;;7.18;3.55;;;;;;;;;;5060489;28;20598;-65
2023/12/24 02:10:34;;;;;;;5.85;2.97;;;;;;;;;;5052867;28;20044;-66
2023/12/24 02:13:00;;;;;;;6.03;3.30;;;;;;;;;;5061280;28;20124;-66
2023/12/24 02:15:26;;;;;;;4.10;2.17;;;;;;;;;;5059529;28;20059;-65
2023/12/24 02:17:52;;;;;;;6.07;1.90;;;;;;;;;;5063330;28;20056;-66
2023/12/24 02:20:18;;;;;;;3.65;1.90;;;;;;;;;;5055390;28;20551;-64
2023/12/24 02:22:44;;;;;;;2.47;1.50;;;;;;;;;;5055417;28;20037;-65
2023/12/24 02:25:10;;;;;;;3.25;1.60;;;;;;;;;;5053398;28;20029;-66
2023/12/24 02:27:52;;;;;;;1.90;1.50;;;;;;;;;;5058431;28;20037;-66
2023/12/24 02:30:24;;;;;;;3.17;1.40;;;;;;;;;;5054308;28;20038;-64
2023/12/24 02:32:54;;;;;;;1.63;1.38;;;;;;;;;;5055094;28;20040;-66
2023/12/24 02:35:21;;;;;;;2.00;1.00;;;;;;;;;;5057047;28;20076;-64
2023/12/24 02:37:47;;;;;;;2.75;1.27;;;;;;;;;;5053949;28;20053;-65
2023/12/24 02:40:13;;;;;;;2.38;1.40;;;;;;;;;;5046948;28;20040;-64
2023/12/24 02:42:39;;;;;;;1.73;1.10;;;;;;;;;;5065568;28;20047;-65
2023/12/24 02:45:05;;;;;;;2.25;1.20;;;;;;;;;;5056766;28;20045;-65
2023/12/24 02:47:31;;;;;;;2.90;1.55;;;;;;;;;;5062223;28;20047;-63
2023/12/24 02:49:57;;;;;;;1.35;1.10;;;;;;;;;;5053215;28;20040;-64
2023/12/24 02:52:23;;;;;;;1.63;1.10;;;;;;;;;;5066618;28;20036;-65
2023/12/24 02:54:49;;;;;;;4.05;1.20;;;;;;;;;;5056149;28;20033;-64
2023/12/24 02:57:15;;;;;;;2.00;1.05;;;;;;;;;;5056102;28;20044;-63
2023/12/24 02:59:41;;;;;;;2.10;0.90;;;;;;;;;;5054493;28;20836;-64
2023/12/24 03:02:07;;;;;;;1.17;0.98;;;;;;;;;;5060514;28;20081;-64
2023/12/24 03:04:33;;;;;;;1.98;0.65;;;;;;;;;;5057922;28;20120;-65
2023/12/24 03:06:59;;;;;;;1.42;0.80;;;;;;;;;;5060226;28;20044;-65
2023/12/24 03:09:25;;;;;;;5.90;1.73;;;;;;;;;;5061867;28;20141;-65
2023/12/24 03:11:51;;;;;;;1.35;0.60;;;;;;;;;;5054572;28;20523;-65
2023/12/24 03:14:17;;;;;;;0.77;0.63;;;;;;;;;;5054626;28;20068;-66
2023/12/24 03:16:43;;;;;;;1.52;0.60;;;;;;;;;;5052868;28;20130;-65
2023/12/24 03:19:09;;;;;;;0.73;0.57;;;;;;;;;;5062797;28;20040;-65
2023/12/24 03:21:35;;;;;;;1.45;0.70;;;;;;;;;;5047689;28;20041;-64
2023/12/24 03:24:02;;;;;;;1.48;0.57;;;;;;;;;;5052926;28;20043;-65
2023/12/24 03:26:29;;;;;;;0.70;0.65;;;;;;;;;;5054844;28;20550;-65
2023/12/24 03:28:56;;;;;;;2.30;0.68;;;;;;;;;;5062075;28;20041;-65
2023/12/24 03:31:25;;;;;;;1.67;0.80;;;;;;;;;;5059302;28;20098;-66
2023/12/24 03:33:51;;;;;;;1.35;0.77;;;;;;;;;;5065463;28;20447;-64
2023/12/24 03:36:17;;;;;;;6.38;0.88;;;;;;;;;;5059802;28;20036;-63
2023/12/24 03:38:43;;;;;;;1.77;1.05;;;;;;;;;;5062812;28;20037;-64
2023/12/24 03:41:09;;;;;;;1.80;1.00;;;;;;;;;;5053074;28;20043;-65
2023/12/24 03:43:35;;;;;;;2.00;1.00;;;;;;;;;;5063428;28;20399;-63
2023/12/24 03:46:02;;;;;;;1.30;1.20;;;;;;;;;;5058449;28;20053;-65
2023/12/24 03:48:28;;;;;;;3.15;1.48;;;;;;;;;;5063406;28;20044;-65
2023/12/24 03:50:54;;;;;;;2.70;1.52;;;;;;;;;;5056922;28;20424;-65
2023/12/24 03:53:20;;;;;;;1.77;1.25;;;;;;;;;;5064917;28;20115;-65
2023/12/24 03:55:46;;;;;;;3.38;1.50;;;;;;;;;;5059255;28;20105;-65
2023/12/24 03:58:12;;;;;;;1.65;1.23;;;;;;;;;;5064132;28;20037;-64
2023/12/24 04:00:38;;;;;;;1.15;0.90;;;;;;;;;;5060924;28;20241;-64
2023/12/24 04:03:04;;;;;;;2.22;1.20;;;;;;;;;;5067774;28;20585;-64
2023/12/24 04:05:30;;;;;;;1.13;0.80;;;;;;;;;;5061616;28;20102;-65
2023/12/24 04:07:56;;;;;;;8.55;0.70;;;;;;;;;;5059516;28;20048;-65
2023/12/24 04:10:22;;;;;;;1.20;0.50;;;;;;;;;;5060931;28;20515;-64
2023/12/24 04:12:48;;;;;;;0.40;0.40;;;;;;;;;;5061556;28;20040;-65
2023/12/24 04:15:14;;;;;;;0.70;0.40;;;;;;;;;;5062579;28;20047;-65
2023/12/24 04:17:40;;;;;;;1.98;0.55;;;;;;;;;;5068484;28;20036;-66
2023/12/24 04:20:07;;;;;;;3.40;0.55;;;;;;;;;;5062858;28;20503;-65
2023/12/24 04:22:33;;;;;;;0.50;0.28;;;;;;;;;;5062262;28;20117;-65
2023/12/24 04:24:59;;;;;;;0.43;0.13;;;;;;;;;;5061889;28;20033;-66
2023/12/24 04:27:26;;;;;;;0.75;0.20;;;;;;;;;;5065635;28;20451;-65
2023/12/24 04:29:52;;;;;;;0.10;0.10;;;;;;;;;;5060826;28;20595;-64
2023/12/24 04:32:21;;;;;;;0.68;0.20;;;;;;;;;;5068374;28;20043;-64
2023/12/24 04:34:47;;;;;;;0.10;0.10;;;;;;;;;;5057415;28;20052;-65
2023/12/24 04:37:13;;;;;;;0.20;0.20;;;;;;;;;;5063908;28;20032;-65
2023/12/24 04:39:39;;;;;;;0.10;0.10;;;;;;;;;;5045833;28;20041;-65
2023/12/24 04:42:06;;;;;;;0.20;0.20;;;;;;;;;;5061608;28;20033;-66
2023/12/24 04:44:32;;;;;;;0.63;0.22;;;;;;;;;;5054661;28;20044;-66
2023/12/24 04:46:58;;;;;;;0.68;0.20;;;;;;;;;;5047695;28;20040;-66
2023/12/24 04:49:24;;;;;;;0.30;0.20;;;;;;;;;;5060593;28;20501;-67
2023/12/24 04:51:50;;;;;;;;;;;;;;;;;;5053202;28;20043;-67
2023/12/24 04:54:16;;;;;;;0.10;0.10;;;;;;;;;;5059928;28;20010;-66
2023/12/24 04:56:41;;;;;;;;;;;;;;;;;;5057028;28;20055;-66
2023/12/24 04:59:07;;;;;;;0.13;0.13;;;;;;;;;;5063873;28;19939;-67
2023/12/24 05:01:33;;;;;;;;;;;;;;;;;;5056575;28;20038;-66
2023/12/24 05:03:59;;;;;;;0.10;0.10;;;;;;;;;;5067086;28;20410;-67
2023/12/24 05:06:28;;;;;;;0.10;0.10;;;;;;;;;;5057377;28;20052;-67
2023/12/24 05:08:54;;;;;;;0.50;0.10;;;;;;;;;;5059483;28;20048;-66
2023/12/24 05:11:20;;;;;;;0.10;0.10;;;;;;;;;;5058834;28;20037;-66
2023/12/24 05:13:46;;;;;;;0.22;0.15;;;;;;;;;;5060330;28;20051;-65
2023/12/24 05:16:12;;;;;;;0.70;0.20;;;;;;;;;;5053198;28;20040;-67
2023/12/24 05:18:38;;;;;;;0.10;0.10;;;;;;;;;;5062017;28;20045;-66
2023/12/24 05:21:04;;;;;;;;;;;;;;;;;;5048673;28;20137;-67
2023/12/24 05:23:30;;;;;;;0.27;0.10;;;;;;;;;;5062958;28;19927;-67
2023/12/24 05:25:57;;;;;;;0.10;0.10;;;;;;;;;;5051950;28;20315;-64
2023/12/24 05:28:23;;;;;;;0.20;0.10;;;;;;;;;;5048507;28;20051;-67
2023/12/24 05:30:49;;;;;;;2.38;0.10;;;;;;;;;;5053499;28;20056;-68
2023/12/24 05:33:15;;;;;;;1.25;0.10;;;;;;;;;;5061409;28;20068;-67
2023/12/24 05:35:41;;;;;;;0.20;0.15;;;;;;;;;;5056275;28;20442;-68
2023/12/24 05:38:07;;;;;;;0.10;0.10;;;;;;;;;;5056816;28;20044;-70
2023/12/24 05:40:34;;;;;;;0.10;0.10;;;;;;;;;;5056922;28;20041;-70
2023/12/24 05:43:00;;;;;;;0.10;0.10;;;;;;;;;;5063458;28;20043;-69
2023/12/24 05:45:26;;;;;;;0.20;0.20;;;;;;;;;;5061517;28;20068;-69
2023/12/24 05:47:52;;;;;;;0.20;0.10;;;;;;;;;;5061281;28;20123;-69
2023/12/24 05:50:18;;;;;;;0.40;0.17;;;;;;;;;;5056459;28;21153;-69
2023/12/24 05:52:44;;;;;;;0.10;0.10;;;;;;;;;;5063589;28;20044;-68
2023/12/24 05:55:10;;;;;;;0.00;0.00;;;;;;;;;;5046109;28;20037;-68
2023/12/24 05:57:37;;;;;;;0.17;0.15;;;;;;;;;;5059935;28;20495;-69
2023/12/24 06:00:05;;;;;;;0.10;0.10;;;;;;;;;;5055199;28;20078;-68
2023/12/24 06:02:31;;;;;;;0.10;0.10;;;;;;;;;;5063658;28;20038;-68
2023/12/24 06:04:57;;;;;;;0.35;0.20;;;;;;;;;;5060557;28;20547;-68
2023/12/24 06:07:23;;;;;;;0.10;0.10;;;;;;;;;;5064197;28;20083;-69
2023/12/24 06:09:49;;;;;;;0.40;0.10;;;;;;;;;;5059286;28;20064;-68
2023/12/24 06:12:15;;;;;;;0.10;0.10;;;;;;;;;;5061219;28;20143;-68
2023/12/24 06:14:41;;;;;;;0.47;0.10;;;;;;;;;;5050707;28;20037;-67
2023/12/24 06:17:07;;;;;;;0.65;0.10;;;;;;;;;;5045334;28;20461;-70
2023/12/24 06:19:33;;;;;;;0.20;0.10;;;;;;;;;;5059457;28;20067;-70
2023/12/24 06:22:00;;;;;;;0.10;0.10;;;;;;;;;;5050123;28;20064;-68
2023/12/24 06:24:26;;;;;;;0.10;0.10;;;;;;;;;;5062305;28;20045;-69
2023/12/24 06:26:52;;;;;;;0.13;0.10;;;;;;;;;;5045083;28;20500;-68
2023/12/24 06:29:18;;;;;;;0.17;0.10;;;;;;;;;;5050765;28;20072;-68
2023/12/24 06:31:44;;;;;;;0.10;0.10;;;;;;;;;;5056525;28;20041;-68
2023/12/24 06:34:11;;;;;;;2.13;0.10;;;;;;;;;;5066070;28;20567;-70
2023/12/24 06:36:38;;;;;;;0.45;0.17;;;;;;;;;;5058894;28;20083;-68
2023/12/24 06:39:04;;;;;;;0.60;0.17;;;;;;;;;;5058903;28;20036;-68
2023/12/24 06:41:30;;;;;;;0.32;0.20;;;;;;;;;;5058616;28;20032;-69
2023/12/24 06:43:56;;;;;;;0.10;0.10;;;;;;;;;;5060827;28;20123;-68
2023/12/24 06:46:24;;;;;;;;;;;;;;;;;;5059119;28;20044;-67
2023/12/24 06:48:50;;;;;;;0.00;0.00;;;;;;;;;;5062883;28;19921;-68
2023/12/24 06:51:16;;;;;;;0.10;0.10;;;;;;;;;;5058514;28;20085;-67
2023/12/24 06:53:42;;;;;;;0.10;0.10;;;;;;;;;;5062529;28;20040;-69
2023/12/24 06:56:08;;;;;;;0.30;0.10;;;;;;;;;;5053924;28;20040;-68
2023/12/24 06:58:34;;;;;;;0.20;0.10;;;;;;;;;;5062373;28;20047;-69
2023/12/24 07:01:00;;;;;;;0.10;0.10;;;;;;;;;;5056056;28;20032;-69
2023/12/24 07:03:26;;;;;;;0.20;0.10;;;;;;;;;;5058805;28;20036;-70
2023/12/24 07:05:52;;;;;;;0.10;0.10;;;;;;;;;;5057434;28;20051;-69
2023/12/24 07:08:17;;;;;;;0.15;0.15;;;;;;;;;;5055825;28;20024;-70
2023/12/24 07:10:43;;;;;;;0.28;0.10;;;;;;;;;;5058131;28;20036;-68
2023/12/24 07:13:10;;;;;;;0.38;0.10;;;;;;;;;;5063992;28;20058;-68
2023/12/24 07:15:39;;;;;;;0.10;0.10;;;;;;;;;;5054178;28;20037;-69
2023/12/24 07:18:06;;;;;;;0.10;0.10;;;;;;;;;;5058045;28;20049;-68
2023/12/24 07:20:31;;;;;;;0.20;0.20;;;;;;;;;;5049680;28;20101;-69
2023/12/24 07:22:57;;;;;;;0.10;0.10;;;;;;;;;;5054731;28;20484;-68
2023/12/24 07:25:23;;;;;;;0.10;0.10;;;;;;;;;;5057151;28;20032;-68
2023/12/24 07:27:49;;;;;;;0.10;0.10;;;;;;;;;;5058089;28;20041;-68
2023/12/24 07:30:15;;;;;;;0.10;0.10;;;;;;;;;;5053856;28;20036;-70
2023/12/24 07:32:45;;;;;;;0.10;0.10;;;;;;;;;;5052121;28;20048;-68
2023/12/24 07:35:11;;;;;;;0.57;0.20;;;;;;;;;;5055990;28;20215;-68
2023/12/24 07:37:37;;;;;;;0.90;0.10;;;;;;;;;;5067359;28;20446;-68
2023/12/24 07:40:03;;;;;;;0.57;0.30;;;;;;;;;;5049561;28;20037;-69
2023/12/24 07:42:29;;;;;;;1.52;0.10;;;;;;;;;;5066369;28;20040;-70
2023/12/24 07:44:55;;;;;;;0.30;0.30;;;;;;;;;;5052605;28;20127;-68
2023/12/24 07:47:21;;;;;;;0.10;0.10;;;;;;;;;;5066744;28;20048;-69
2023/12/24 07:49:47;;;;;;;2.38;0.40;;;;;;;;;;5057390;28;20136;-69
2023/12/24 07:52:13;;;;;;;0.20;0.10;;;;;;;;;;5062453;28;20040;-69
2023/12/24 07:54:39;;;;;;;0.40;0.20;;;;;;;;;;5056333;28;20033;-68
2023/12/24 07:57:05;;;;;;;0.10;0.10;;;;;;;;;;5063844;28;20090;-68
2023/12/24 07:59:31;;;;;;;1.10;0.20;;;;;;;;;;5064584;28;20517;-67
2023/12/24 08:01:57;;;;;;;0.13;0.13;;;;;;;;;;5059628;28;20044;-66
2023/12/24 08:04:23;;;;;;;0.82;0.10;;;;;;;;;;5060318;28;20055;-68
2023/12/24 08:06:51;;;;;;;0.10;0.10;;;;;;;;;;5061465;28;20063;-67
2023/12/24 08:09:17;;;;;;;0.20;0.20;;;;;;;;;;5059284;28;20072;-69
2023/12/24 08:11:43;;;;;;;0.20;0.15;;;;;;;;;;5055537;28;20437;-67
2023/12/24 08:14:09;;;;;;;0.20;0.20;;;;;;;;;;5066131;28;20107;-67
2023/12/24 08:16:35;;;;;;;0.40;0.20;;;;;;;;;;5051143;28;20040;-68
2023/12/24 08:19:01;;;;;;;0.30;0.10;;;;;;;;;;5055936;28;20025;-66
2023/12/24 08:21:27;;;;;;;0.10;0.10;;;;;;;;;;5045250;28;20053;-66
2023/12/24 08:23:53;;;;;;;0.10;0.10;;;;;;;;;;5057194;28;20087;-68
2023/12/24 08:26:19;;;;;;;0.85;0.28;;;;;;;;;;5057785;28;20049;-67
2023/12/24 08:28:45;;;;;;;0.35;0.10;;;;;;;;;;5062531;28;20044;-69
2023/12/24 08:31:11;;;;;;;1.80;0.20;;;;;;;;;;5060229;28;20036;-66
2023/12/24 08:33:37;;;;;;;0.10;0.10;;;;;;;;;;5064732;28;20510;-68
2023/12/24 08:36:03;;;;;;;0.20;0.10;;;;;;;;;;5054754;28;20071;-69
2023/12/24 08:38:29;;;;;;;0.17;0.10;;;;;;;;;;5064372;28;20060;-68
2023/12/24 08:40:56;;;;;;;2.95;0.20;;;;;;;;;;5052961;28;20040;-65
2023/12/24 08:43:22;;;;;;;0.43;0.20;;;;;;;;;;5064047;28;20036;-65
2023/12/24 08:45:48;;;;;;;0.30;0.10;;;;;;;;;;5054933;28;20052;-66
2023/12/24 08:48:13;;;;;;;0.43;0.10;;;;;;;;;;5067891;28;20075;-68
2023/12/24 08:50:39;;;;;;;0.52;0.10;;;;;;;;;;5060669;28;20048;-68
2023/12/24 08:53:05;;;;;;;0.13;0.10;;;;;;;;;;5060095;28;20037;-68
2023/12/24 08:55:31;;;;;;;1.27;0.10;;;;;;;;;;5053009;28;20068;-67
2023/12/24 08:57:58;;;;;;;0.10;0.10;;;;;;;;;;5063366;28;20065;-70
2023/12/24 09:00:24;;;;;;;0.10;0.10;;;;;;;;;;5058865;28;20492;-66
2023/12/24 09:02:50;;;;;;;0.52;0.43;;;;;;;;;;5060011;28;20099;-68
2023/12/24 09:05:18;;;;;;;0.30;0.20;;;;;;;;;;5046359;28;20607;-67
2023/12/24 09:07:45;;;;;;;0.10;0.10;;;;;;;;;;5059961;28;20131;-66
2023/12/24 09:10:10;;;;;;;0.15;0.15;;;;;;;;;;5061116;28;20037;-70
2023/12/24 09:12:36;;;;;;;0.73;0.13;;;;;;;;;;5067055;28;20063;-70
2023/12/24 09:15:03;;;;;;;0.20;0.20;;;;;;;;;;5053462;28;20065;-67
2023/12/24 09:17:29;;;;;;;0.43;0.20;;;;;;;;;;5061092;28;20489;-68
2023/12/24 09:19:55;;;;;;;0.22;0.17;;;;;;;;;;5061728;28;20090;-67
2023/12/24 09:22:21;;;;;;;0.30;0.17;;;;;;;;;;5053009;28;20063;-68
2023/12/24 09:24:47;;;;;;;0.13;0.13;;;;;;;;;;5063192;28;20488;-68
2023/12/24 09:27:13;;;;;;;0.20;0.20;;;;;;;;;;5054642;28;20041;-68
2023/12/24 09:29:39;;;;;;;0.10;0.10;;;;;;;;;;5063643;28;20041;-69
2023/12/24 09:32:06;;;;;;;0.40;0.30;;;;;;;;;;5059047;28;20045;-67
2023/12/24 09:34:33;;;;;;;0.32;0.20;;;;;;;;;;5060185;28;20044;-68
2023/12/24 09:36:59;;;;;;;0.30;0.20;;;;;;;;;;5056456;28;20045;-66
2023/12/24 09:39:25;;;;;;;0.20;0.20;;;;;;;;;;5048927;28;20115;-67
2023/12/24 09:41:53;;;;;;;0.30;0.20;;;;;;;;;;5048021;28;20038;-68
2023/12/24 09:44:19;;;;;;;0.20;0.20;;;;;;;;;;5058202;28;20052;-71
2023/12/24 09:46:45;;;;;;;0.57;0.13;;;;;;;;;;5051938;28;20460;-67
2023/12/24 09:49:11;;;;;;;0.30;0.20;;;;;;;;;;5057282;28;20041;-67
2023/12/24 09:51:39;;;;;;;0.20;0.20;;;;;;;;;;5046311;28;20048;-67
2023/12/24 09:54:06;;;;;;;0.15;0.10;;;;;;;;;;5053822;28;20040;-67
2023/12/24 09:56:32;;;;;;;0.20;0.20;;;;;;;;;;5050880;28;20098;-67
2023/12/24 09:58:58;;;;;;;1.38;0.45;;;;;;;;;;5058534;28;20068;-66
2023/12/24 10:01:24;;;;;;;0.40;0.10;;;;;;;;;;5047159;28;20110;-68
2023/12/24 10:03:50;;;;;;;0.20;0.20;;;;;;;;;;5047995;28;20040;-67
2023/12/24 10:06:17;;;;;;;0.10;0.10;;;;;;;;;;5048742;28;20504;-66
2023/12/24 10:08:44;;;;;;;0.10;0.10;;;;;;;;;;5058801;28;20067;-67
2023/12/24 10:11:15;;;;;;;0.20;0.20;;;;;;;;;;5061685;28;20044;-67
2023/12/24 10:13:41;;;;;;;0.47;0.22;;;;;;;;;;5051760;28;20047;-66
2023/12/24 10:16:07;;;;;;;1.50;0.20;;;;;;;;;;5058834;28;20051;-67
2023/12/24 10:18:34;;;;;;;0.20;0.20;;;;;;;;;;5047939;28;20056;-68
2023/12/24 10:21:08;;;;;;;0.25;0.10;;;;;;;;;;5052984;28;20400;-67
2023/12/24 10:23:35;;;;;;;0.15;0.15;;;;;;;;;;5048555;28;20052;-66
2023/12/24 10:26:06;;;;;;;0.22;0.17;;;;;;;;;;5050591;28;20154;-70
2023/12/24 10:28:32;;;;;;;0.20;0.20;;;;;;;;;;5056399;28;20059;-68
2023/12/24 10:31:06;;;;;;;0.40;0.20;;;;;;;;;;5052056;28;20488;-68
2023/12/24 10:33:33;;;;;;;0.50;0.20;;;;;;;;;;5052982;28;20044;-68
2023/12/24 10:35:58;;;;;;;0.50;0.25;;;;;;;;;;5050361;28;20041;-66
2023/12/24 10:38:27;;;;;;;0.82;0.40;;;;;;;;;;5046574;28;20578;-70
2023/12/24 10:40:54;;;;;;;0.40;0.20;;;;;;;;;;5042384;28;20630;-71
2023/12/24 10:43:20;;;;;;;0.45;0.10;;;;;;;;;;5048388;28;20102;-69
2023/12/24 10:45:46;;;;;;;0.65;0.20;;;;;;;;;;5053493;28;20044;-71
2023/12/24 10:48:12;;;;;;;9.95;0.45;;;;;;;;;;5056818;28;20102;-70
2023/12/24 10:50:38;;;;;;;0.60;0.35;;;;;;;;;;5048431;28;20099;-68
2023/12/24 10:53:04;;;;;;;0.50;0.20;;;;;;;;;;5057801;28;20041;-71
2023/12/24 10:55:32;;;;;;;0.25;0.17;;;;;;;;;;5051382;28;20045;-69
2023/12/24 10:58:11;;;;;;;0.93;0.20;;;;;;;;;;5048773;28;20065;-67
2023/12/24 11:00:37;;;;;;;0.10;0.10;;;;;;;;;;5037786;28;20037;-67
2023/12/24 11:03:04;;;;;;;0.43;0.22;;;;;;;;;;5029219;28;20087;-69
2023/12/24 11:05:48;;;;;;;0.10;0.10;;;;;;;;;;5039308;28;20063;-73
2023/12/24 11:08:20;;;;;;;0.10;0.10;;;;;;;;;;5039358;28;20049;-66
2023/12/24 11:10:53;;;;;;;0.55;0.30;;;;;;;;;;5042871;28;20114;-66
2023/12/24 11:13:34;;;;;;;0.17;0.17;;;;;;;;;;5038396;28;20128;-70
2023/12/24 11:16:01;;;;;;;0.30;0.28;;;;;;;;;;5028773;28;20062;-68
2023/12/24 11:18:40;;;;;;;0.30;0.20;;;;;;;;;;5038749;28;20053;-68
2023/12/24 11:21:06;;;;;;;0.30;0.20;;;;;;;;;;5032389;28;20034;-68
2023/12/24 11:23:32;;;;;;;0.20;0.15;;;;;;;;;;5029748;28;20079;-68
2023/12/24 11:25:58;;;;;;;0.30;0.20;;;;;;;;;;5029897;28;20044;-67
2023/12/24 11:28:24;;;;;;;0.35;0.20;;;;;;;;;;5037609;28;20068;-67
2023/12/24 11:30:50;;;;;;;2.50;0.25;;;;;;;;;;5033710;28;20040;-69
2023/12/24 11:33:28;;;;;;;0.40;0.30;;;;;;;;;;5051489;28;20039;-67
2023/12/24 11:35:55;;;;;;;0.60;0.30;;;;;;;;;;5047140;28;20036;-69
2023/12/24 11:38:33;;;;;;;0.50;0.30;;;;;;;;;;5047461;28;20036;-67
2023/12/24 11:41:20;;;;;;;0.22;0.20;;;;;;;;;;5048166;28;20048;-68
2023/12/24 11:43:56;;;;;;;0.20;0.20;;;;;;;;;;5049453;28;20040;-68
2023/12/24 11:46:23;;;;;;;0.30;0.20;;;;;;;;;;5056349;28;20045;-70
2023/12/24 11:48:49;;;;;;;0.20;0.20;;;;;;;;;;5046620;28;20044;-69
2023/12/24 11:51:16;;;;;;;1.75;0.20;;;;;;;;;;5055801;28;20106;-68
2023/12/24 11:53:42;;;;;;;0.17;0.15;;;;;;;;;;5059608;28;20043;-68
2023/12/24 11:56:09;;;;;;;1.35;0.35;;;;;;;;;;5048121;28;20051;-68
2023/12/24 11:58:35;;;;;;;0.52;0.30;;;;;;;;;;5051738;28;20044;-68
2023/12/24 12:01:05;;;;;;;0.63;0.30;;;;;;;;;;5040901;28;20060;-68
2023/12/24 12:03:32;;;;;;;0.55;0.30;;;;;;;;;;5033256;28;20048;-67
2023/12/24 12:05:58;;;;;;;0.95;0.40;;;;;;;;;;5017262;28;20487;-67
2023/12/24 12:08:24;;;;;;;0.47;0.30;;;;;;;;;;5019923;28;20133;-68
2023/12/24 12:10:51;;;;;;;0.20;0.20;;;;;;;;;;5034201;28;20124;-68
2023/12/24 12:13:17;;;;;;;0.13;0.13;;;;;;;;;;5039325;28;20048;-68
2023/12/24 12:15:43;;;;;;;0.28;0.28;;;;;;;;;;5039152;28;20044;-68
2023/12/24 12:18:09;;;;;;;0.25;0.20;;;;;;;;;;5044143;28;20056;-69
2023/12/24 12:20:35;;;;;;;0.43;0.30;;;;;;;;;;5032348;28;20084;-68
2023/12/24 12:23:01;;;;;;;1.13;0.20;;;;;;;;;;5042999;28;20614;-69
2023/12/24 12:25:28;;;;;;;0.45;0.20;;;;;;;;;;5038862;28;20056;-69
2023/12/24 12:27:54;;;;;;;0.17;0.17;;;;;;;;;;5041009;28;20042;-67
2023/12/24 12:30:21;;;;;;;0.20;0.20;;;;;;;;;;5041555;28;20044;-67
2023/12/24 12:32:48;;;;;;;0.45;0.20;;;;;;;;;;5049512;28;20051;-68
2023/12/24 12:35:14;;;;;;;0.20;0.20;;;;;;;;;;5059935;28;20041;-69
2023/12/24 12:37:40;;;;;;;0.43;0.20;;;;;;;;;;5053878;28;20048;-68
2023/12/24 12:40:07;;;;;;;0.70;0.20;;;;;;;;;;5056563;28;20064;-69
2023/12/24 12:42:33;;;;;;;0.13;0.13;;;;;;;;;;5061206;28;20447;-68
2023/12/24 12:44:59;;;;;;;0.32;0.10;;;;;;;;;;5050929;28;20036;-68
2023/12/24 12:47:25;;;;;;;1.05;0.38;;;;;;;;;;5058666;28;20052;-68
2023/12/24 12:49:52;;;;;;;0.40;0.22;;;;;;;;;;5057957;28;20094;-68
2023/12/24 12:52:18;;;;;;;0.57;0.32;;;;;;;;;;5063472;28;20190;-68
2023/12/24 12:54:44;;;;;;;0.40;0.30;;;;;;;;;;5057196;28;20592;-67
2023/12/24 12:57:10;;;;;;;0.55;0.30;;;;;;;;;;5050957;28;20120;-67
2023/12/24 12:59:37;;;;;;;0.55;0.32;;;;;;;;;;5054640;28;20061;-67
2023/12/24 13:02:03;;;;;;;0.20;0.20;;;;;;;;;;5037418;28;20072;-67
2023/12/24 13:04:34;;;;;;;0.50;0.30;;;;;;;;;;5039392;28;20512;-67
2023/12/24 13:07:07;;;;;;;0.75;0.40;;;;;;;;;;5046165;28;20423;-67
2023/12/24 13:09:41;;;;;;;0.20;0.20;;;;;;;;;;5040005;28;20520;-69
2023/12/24 13:12:08;;;;;;;0.60;0.30;;;;;;;;;;5045066;28;20063;-67
2023/12/24 13:14:34;;;;;;;0.63;0.40;;;;;;;;;;5037298;28;20098;-67
2023/12/24 13:17:10;;;;;;;0.40;0.30;;;;;;;;;;5039082;28;21502;-67
2023/12/24 13:19:38;;;;;;;0.70;0.40;;;;;;;;;;5034812;28;20052;-68
2023/12/24 13:22:07;;;;;;;8.15;0.38;;;;;;;;;;5039316;28;20045;-67
2023/12/24 13:24:33;;;;;;;0.75;0.30;;;;;;;;;;5041469;28;20530;-68
2023/12/24 13:27:00;;;;;;;0.45;0.35;;;;;;;;;;5038453;28;20041;-67
2023/12/24 13:29:27;;;;;;;0.50;0.30;;;;;;;;;;5041798;28;20787;-68
2023/12/24 13:31:53;;;;;;;0.85;0.38;;;;;;;;;;5050452;28;20040;-68
2023/12/24 13:34:20;;;;;;;2.25;0.35;;;;;;;;;;5059640;28;20517;-69
2023/12/24 13:36:46;;;;;;;0.28;0.20;;;;;;;;;;5057331;28;20520;-68
2023/12/24 13:39:15;;;;;;;0.52;0.47;;;;;;;;;;5065545;28;20036;-67
2023/12/24 13:41:42;;;;;;;0.50;0.30;;;;;;;;;;5060575;28;20065;-67
2023/12/24 13:44:08;;;;;;;0.93;0.40;;;;;;;;;;5057696;28;20040;-68
2023/12/24 13:46:34;;;;;;;0.43;0.30;;;;;;;;;;5059778;28;20766;-68
2023/12/24 13:49:00;;;;;;;0.40;0.40;;;;;;;;;;5056745;28;20115;-68
2023/12/24 13:51:27;;;;;;;0.63;0.32;;;;;;;;;;5054646;28;20123;-68
2023/12/24 13:53:53;;;;;;;0.63;0.30;;;;;;;;;;5062110;28;20614;-68
2023/12/24 13:56:19;;;;;;;1.10;0.40;;;;;;;;;;5057550;28;20047;-68
2023/12/24 13:58:45;;;;;;;0.50;0.45;;;;;;;;;;5066131;28;20525;-67
2023/12/24 14:01:11;;;;;;;;;;;;;;;;;;5046505;28;20064;-67
2023/12/24 14:03:37;;;;;;;1.17;0.30;;;;;;;;;;5047134;28;20029;-68
2023/12/24 14:06:05;;;;;;;0.28;0.28;;;;;;;;;;5035439;28;20045;-69
2023/12/24 14:08:31;;;;;;;1.70;0.30;;;;;;;;;;5041829;28;20043;-67
2023/12/24 14:10:57;;;;;;;0.55;0.40;;;;;;;;;;5037272;28;20534;-66
2023/12/24 14:13:23;;;;;;;;;;;;;;;;;;5038635;28;20048;-69
2023/12/24 14:15:49;;;;;;;3.63;0.30;;;;;;;;;;5034612;28;19920;-68
2023/12/24 14:18:15;;;;;;;0.20;0.15;;;;;;;;;;5044284;28;20033;-67
2023/12/24 14:20:41;;;;;;;0.20;0.20;;;;;;;;;;5034048;28;20036;-67
2023/12/24 14:23:08;;;;;;;;;;;;;;;;;;5042414;28;20048;-67
2023/12/24 14:25:34;;;;;;;0.35;0.20;;;;;;;;;;5041513;28;20367;-67
2023/12/24 14:28:00;;;;;;;0.20;0.20;;;;;;;;;;5039603;28;20110;-68
2023/12/24 14:30:26;;;;;;;0.10;0.10;;;;;;;;;;5041063;28;20036;-66
2023/12/24 14:32:52;;;;;;;0.10;0.10;;;;;;;;;;5058059;28;20048;-68
2023/12/24 14:35:18;;;;;;;1.10;0.20;;;;;;;;;;5056894;28;20047;-68